createdAt,value
2023-04-08T00:00:13.241Z,100417.28
2023-04-08T00:02:41.389Z,100412.00
2023-04-08T00:05:09.636Z,100413.63
2023-04-08T00:07:37.510Z,100405.69
2023-04-08T00:10:05.113Z,100414.47
2023-04-08T00:12:32.828Z,100413.63
2023-04-08T00:15:00.801Z,100413.63
2023-04-08T00:17:28.767Z,100423.19
2023-04-08T00:19:56.872Z,100419.53
2023-04-08T00:22:24.775Z,100415.94
2023-04-08T00:24:52.390Z,100414.88
2023-04-08T00:27:20.790Z,100412.25
2023-04-08T00:29:48.418Z,100421.91
2023-04-08T00:32:16.225Z,100422.66
2023-04-08T00:34:43.863Z,100426.06
2023-04-08T00:37:11.529Z,100422.41
2023-04-08T00:39:39.501Z,100426.59
2023-04-08T00:42:07.109Z,100424.72
2023-04-08T00:44:34.734Z,100429.06
2023-04-08T00:47:02.532Z,100425.41
2023-04-08T00:49:30.675Z,100432.31
2023-04-08T00:51:58.698Z,100434.78
2023-04-08T00:54:26.637Z,100437.25
2023-04-08T00:56:54.246Z,100435.19
2023-04-08T00:59:21.967Z,100445.44
2023-04-08T01:01:49.622Z,100436.38
2023-04-08T01:04:17.775Z,100440.56
2023-04-08T01:06:47.099Z,100429.78
2023-04-08T01:09:14.709Z,100440.22
2023-04-08T01:11:43.734Z,100444.50
2023-04-08T01:14:11.326Z,100442.59
2023-04-08T01:16:38.904Z,100442.41
2023-04-08T01:19:06.504Z,100433.44
2023-04-08T01:21:34.096Z,100434.31
2023-04-08T01:24:02.278Z,100434.22
2023-04-08T01:26:29.951Z,100440.28
2023-04-08T01:28:57.878Z,100436.69
2023-04-08T01:31:25.469Z,100437.44
2023-04-08T01:33:53.144Z,100431.22
2023-04-08T01:36:20.928Z,100438.22
2023-04-08T01:38:48.778Z,100430.38
2023-04-08T01:41:16.950Z,100430.38
2023-04-08T01:43:44.568Z,100432.16
2023-04-08T01:46:12.191Z,100437.44
2023-04-08T01:48:39.977Z,100434.63
2023-04-08T01:51:07.542Z,100438.22
2023-04-08T01:53:35.523Z,100435.56
2023-04-08T01:56:03.652Z,100445.41
2023-04-08T01:58:31.234Z,100443.63
2023-04-08T02:00:58.829Z,100443.50
2023-04-08T02:03:27.009Z,100444.38
2023-04-08T02:05:54.937Z,100442.56
2023-04-08T02:08:22.532Z,100444.25
2023-04-08T02:10:50.139Z,100446.00
2023-04-08T02:13:17.788Z,100445.81
2023-04-08T02:15:45.576Z,100442.22
2023-04-08T02:18:13.918Z,100451.03
2023-04-08T02:20:41.546Z,100445.72
2023-04-08T02:23:09.314Z,100442.41
2023-04-08T02:25:37.234Z,100450.34
2023-04-08T02:28:04.842Z,100456.59
2023-04-08T02:30:32.833Z,100456.59
2023-04-08T02:33:00.550Z,100453.16
2023-04-08T02:35:28.204Z,100454.09
2023-04-08T02:37:55.817Z,100449.00
2023-04-08T02:40:23.951Z,100440.53
2023-04-08T02:42:51.957Z,100445.34
2023-04-08T02:45:19.578Z,100448.44
2023-04-08T02:47:47.353Z,100449.72
2023-04-08T02:50:14.997Z,100449.38
2023-04-08T02:52:43.942Z,100450.75
2023-04-08T02:55:12.187Z,100454.59
2023-04-08T02:57:39.727Z,100461.66
2023-04-08T03:00:07.396Z,100465.09
2023-04-08T03:02:35.197Z,100459.00
2023-04-08T03:05:03.139Z,100459.13
2023-04-08T03:07:30.792Z,100464.50
2023-04-08T03:09:58.703Z,100458.50
2023-04-08T03:12:27.578Z,100467.41
2023-04-08T03:14:55.174Z,100465.69
2023-04-08T03:17:22.841Z,100469.28
2023-04-08T03:19:50.856Z,100473.63
2023-04-08T03:22:18.455Z,100469.16
2023-04-08T03:24:46.589Z,100471.91
2023-04-08T03:27:14.498Z,100470.09
2023-04-08T03:29:42.077Z,100470.97
2023-04-08T03:32:10.150Z,100475.31
2023-04-08T03:34:37.814Z,100477.03
2023-04-08T03:37:05.450Z,100477.66
2023-04-08T03:39:33.121Z,100479.28
2023-04-08T03:42:01.173Z,100473.09
2023-04-08T03:44:28.754Z,100474.06
2023-04-08T03:46:56.740Z,100468.94
2023-04-08T03:49:24.325Z,100468.94
2023-04-08T03:51:51.891Z,100468.94
2023-04-08T03:54:19.482Z,100473.38
2023-04-08T03:56:47.250Z,100477.66
2023-04-08T03:59:14.823Z,100472.34
2023-04-08T04:01:42.475Z,100475.94
2023-04-08T04:04:10.385Z,100478.59
2023-04-08T04:06:38.088Z,100475.84
2023-04-08T04:09:06.525Z,100474.25
2023-04-08T04:11:34.092Z,100467.31
2023-04-08T04:14:01.700Z,100477.09
2023-04-08T04:16:31.501Z,100470.22
2023-04-08T04:19:00.450Z,100475.72
2023-04-08T04:21:28.395Z,100471.63
2023-04-08T04:23:56.390Z,100471.06
2023-04-08T04:26:23.976Z,100477.44
2023-04-08T04:28:51.997Z,100479.31
2023-04-08T04:31:19.887Z,100485.53
2023-04-08T04:33:47.983Z,100485.69
2023-04-08T04:36:15.578Z,100491.91
2023-04-08T04:38:44.117Z,100492.94
2023-04-08T04:41:11.763Z,100495.69
2023-04-08T04:43:39.375Z,100497.47
2023-04-08T04:46:09.457Z,100494.88
2023-04-08T04:48:37.054Z,100496.69
2023-04-08T04:51:05.064Z,100499.22
2023-04-08T04:53:32.706Z,100495.75
2023-04-08T04:56:01.951Z,100498.41
2023-04-08T04:58:30.109Z,100494.13
2023-04-08T05:00:57.683Z,100496.84
2023-04-08T05:03:25.338Z,100503.06
2023-04-08T05:05:53.617Z,100500.59
2023-04-08T05:08:21.328Z,100500.66
2023-04-08T05:10:50.611Z,100506.91
2023-04-08T05:13:18.721Z,100510.47
2023-04-08T05:15:46.858Z,100509.59
2023-04-08T05:18:14.511Z,100516.53
2023-04-08T05:20:42.153Z,100523.38
2023-04-08T05:23:10.154Z,100524.16
2023-04-08T05:25:37.745Z,100524.91
2023-04-08T05:28:05.512Z,100516.91
2023-04-08T05:30:33.157Z,100528.31
2023-04-08T05:33:00.988Z,100533.53
2023-04-08T05:35:29.531Z,100525.53
2023-04-08T05:37:57.162Z,100530.75
2023-04-08T05:40:24.836Z,100528.81
2023-04-08T05:42:52.853Z,100527.75
2023-04-08T05:45:20.772Z,100527.69
2023-04-08T05:47:48.848Z,100523.34
2023-04-08T05:50:16.729Z,100530.34
2023-04-08T05:52:45.019Z,100532.03
2023-04-08T05:55:12.666Z,100541.53
2023-04-08T05:57:40.623Z,100546.56
2023-04-08T06:00:09.444Z,100544.50
2023-04-08T06:02:37.334Z,100545.31
2023-04-08T06:05:05.138Z,100556.66
2023-04-08T06:07:32.886Z,100552.13
2023-04-08T06:10:00.593Z,100558.22
2023-04-08T06:12:28.208Z,100560.75
2023-04-08T06:14:56.256Z,100563.41
2023-04-08T06:17:23.947Z,100563.41
2023-04-08T06:19:53.064Z,100572.03
2023-04-08T06:22:20.717Z,100573.59
2023-04-08T06:24:48.702Z,100578.47
2023-04-08T06:27:16.576Z,100589.47
2023-04-08T06:29:44.296Z,100584.81
2023-04-08T06:32:12.112Z,100583.59
2023-04-08T06:34:40.004Z,100583.34
2023-04-08T06:37:08.050Z,100588.50
2023-04-08T06:39:35.644Z,100588.31
2023-04-08T06:42:03.713Z,100577.53
2023-04-08T06:44:31.441Z,100589.69
2023-04-08T06:46:59.080Z,100581.66
2023-04-08T06:49:27.902Z,100589.50
2023-04-08T06:51:55.530Z,100589.34
2023-04-08T06:54:24.098Z,100586.72
2023-04-08T06:56:52.886Z,100585.69
2023-04-08T06:59:20.733Z,100594.41
2023-04-08T07:01:49.116Z,100594.41
2023-04-08T07:04:18.289Z,100604.03
2023-04-08T07:06:46.118Z,100603.84
2023-04-08T07:09:13.773Z,100608.94
2023-04-08T07:11:41.388Z,100616.25
2023-04-08T07:14:09.644Z,100619.25
2023-04-08T07:16:37.342Z,100613.41
2023-04-08T07:19:04.981Z,100605.72
2023-04-08T07:21:32.916Z,100614.28
2023-04-08T07:24:00.628Z,100615.78
2023-04-08T07:26:29.312Z,100609.38
2023-04-08T07:28:56.985Z,100615.25
2023-04-08T07:31:24.622Z,100615.66
2023-04-08T07:33:52.258Z,100625.84
2023-04-08T07:36:19.896Z,100626.50
2023-04-08T07:38:47.770Z,100629.91
2023-04-08T07:41:15.942Z,100630.13
2023-04-08T07:43:43.650Z,100631.81
2023-04-08T07:46:11.526Z,100638.47
2023-04-08T07:48:39.640Z,100641.72
2023-04-08T07:51:10.971Z,100651.16
2023-04-08T07:53:39.287Z,100651.97
2023-04-08T07:56:07.020Z,100645.38
2023-04-08T07:58:34.821Z,100648.34
2023-04-08T08:01:02.722Z,100642.56
2023-04-08T08:03:33.283Z,100647.69
2023-04-08T08:06:02.253Z,100647.34
2023-04-08T08:08:29.880Z,100647.22
2023-04-08T08:10:59.179Z,100649.88
2023-04-08T08:13:26.923Z,100660.50
2023-04-08T08:15:55.251Z,100657.16
2023-04-08T08:18:23.037Z,100665.25
2023-04-08T08:20:50.714Z,100659.06
2023-04-08T08:23:18.586Z,100661.53
2023-04-08T08:25:46.258Z,100658.63
2023-04-08T08:28:14.071Z,100665.44
2023-04-08T08:30:41.744Z,100669.72
2023-04-08T08:33:09.505Z,100682.63
2023-04-08T08:35:37.923Z,100684.88
2023-04-08T08:38:05.548Z,100688.03
2023-04-08T08:40:33.590Z,100683.19
2023-04-08T08:43:01.681Z,100687.47
2023-04-08T08:45:29.484Z,100679.59
2023-04-08T08:47:57.726Z,100684.34
2023-04-08T08:50:25.560Z,100678.47
2023-04-08T08:52:53.598Z,100686.72
2023-04-08T08:55:39.525Z,100679.84
2023-04-08T08:58:10.382Z,100696.75
2023-04-08T09:00:38.054Z,100689.81
2023-04-08T09:03:06.313Z,100698.84
2023-04-08T09:05:34.471Z,100692.75
2023-04-08T09:08:02.215Z,100695.41
2023-04-08T09:10:30.486Z,100703.28
2023-04-08T09:12:58.173Z,100698.72
2023-04-08T09:15:26.580Z,100693.06
2023-04-08T09:17:54.346Z,100698.00
2023-04-08T09:20:22.066Z,100697.63
2023-04-08T09:22:49.949Z,100700.69
2023-04-08T09:25:17.582Z,100703.72
2023-04-08T09:27:45.543Z,100702.19
2023-04-08T09:30:13.224Z,100707.34
2023-04-08T09:32:41.265Z,100707.41
2023-04-08T09:35:08.955Z,100708.47
2023-04-08T09:37:37.992Z,100719.97
2023-04-08T09:40:06.029Z,100715.47
2023-04-08T09:42:33.898Z,100722.50
2023-04-08T09:45:01.594Z,100721.66
2023-04-08T09:47:29.748Z,100718.22
2023-04-08T09:49:57.690Z,100724.59
2023-04-08T09:52:25.774Z,100719.47
2023-04-08T09:54:53.403Z,100722.03
2023-04-08T09:57:21.542Z,100723.44
2023-04-08T09:59:49.232Z,100719.56
2023-04-08T10:02:17.020Z,100728.97
2023-04-08T10:04:45.242Z,100732.38
2023-04-08T10:07:13.128Z,100728.56
2023-04-08T10:09:43.282Z,100728.19
2023-04-08T10:12:11.539Z,100720.78
2023-04-08T10:14:39.411Z,100730.94
2023-04-08T10:17:07.566Z,100727.72
2023-04-08T10:19:35.844Z,100728.84
2023-04-08T10:22:03.511Z,100723.78
2023-04-08T10:24:31.633Z,100733.25
2023-04-08T10:26:59.532Z,100734.88
2023-04-08T10:29:27.760Z,100730.13
2023-04-08T10:31:55.856Z,100724.50
2023-04-08T10:34:25.090Z,100728.88
2023-04-08T10:36:53.348Z,100725.25
2023-04-08T10:39:21.599Z,100725.06
2023-04-08T10:41:50.377Z,100721.19
2023-04-08T10:44:18.379Z,100711.84
2023-04-08T10:46:46.329Z,100711.91
2023-04-08T10:49:14.301Z,100709.03
2023-04-08T10:51:42.476Z,100701.00
2023-04-08T10:54:10.699Z,100700.28
2023-04-08T10:56:38.931Z,100706.47
2023-04-08T10:59:07.166Z,100713.84
2023-04-08T11:01:35.389Z,100711.28
2023-04-08T11:04:03.421Z,100715.53
2023-04-08T11:06:33.549Z,100711.16
2023-04-08T11:09:01.704Z,100708.41
2023-04-08T11:11:30.059Z,100712.84
2023-04-08T11:13:58.579Z,100711.59
2023-04-08T11:16:26.690Z,100710.44
2023-04-08T11:18:55.358Z,100706.16
2023-04-08T11:21:23.670Z,100709.78
2023-04-08T11:23:52.070Z,100707.53
2023-04-08T11:26:22.235Z,100707.97
2023-04-08T11:28:52.146Z,100704.56
2023-04-08T11:31:23.460Z,100702.66
2023-04-08T11:33:52.988Z,100705.19
2023-04-08T11:36:21.838Z,100700.63
2023-04-08T11:38:49.628Z,100704.25
2023-04-08T11:41:17.697Z,100706.91
2023-04-08T11:43:45.986Z,100707.84
2023-04-08T11:46:13.837Z,100698.47
2023-04-08T11:48:41.544Z,100703.06
2023-04-08T11:51:10.076Z,100706.81
2023-04-08T11:53:38.220Z,100703.31
2023-04-08T11:56:06.553Z,100702.22
2023-04-08T11:58:34.296Z,100706.06
2023-04-08T12:01:02.039Z,100708.94
2023-04-08T12:03:29.898Z,100707.00
2023-04-08T12:05:57.746Z,100711.59
2023-04-08T12:08:26.674Z,100713.72
2023-04-08T12:10:54.502Z,100710.09
2023-04-08T12:13:22.806Z,100704.09
2023-04-08T12:15:50.727Z,100712.44
2023-04-08T12:18:18.769Z,100714.47
2023-04-08T12:20:46.941Z,100722.25
2023-04-08T12:23:14.842Z,100718.66
2023-04-08T12:25:43.365Z,100718.44
2023-04-08T12:28:11.940Z,100723.34
2023-04-08T12:30:39.690Z,100716.72
2023-04-08T12:33:07.966Z,100710.75
2023-04-08T12:35:35.842Z,100718.44
2023-04-08T12:38:03.990Z,100721.41
2023-04-08T12:40:31.863Z,100727.16
2023-04-08T12:42:59.801Z,100714.38
2023-04-08T12:45:28.238Z,100715.84
2023-04-08T12:47:56.246Z,100715.84
2023-04-08T12:50:26.123Z,100717.59
2023-04-08T12:52:54.039Z,100705.00
2023-04-08T12:55:25.268Z,100710.66
2023-04-08T12:57:53.233Z,100710.00
2023-04-08T13:00:20.983Z,100708.31
2023-04-08T13:02:49.269Z,100706.38
2023-04-08T13:05:19.754Z,100712.56
2023-04-08T13:07:51.813Z,100706.47
2023-04-08T13:10:19.750Z,100713.50
2023-04-08T13:12:47.577Z,100716.41
2023-04-08T13:15:16.185Z,100714.06
2023-04-08T13:17:44.192Z,100716.91
2023-04-08T13:20:12.113Z,100717.88
2023-04-08T13:22:42.150Z,100709.25
2023-04-08T13:25:09.979Z,100715.66
2023-04-08T13:27:37.961Z,100719.38
2023-04-08T13:30:05.873Z,100722.25
2023-04-08T13:32:33.922Z,100718.94
2023-04-08T13:35:01.938Z,100726.28
2023-04-08T13:37:30.450Z,100719.25
2023-04-08T13:39:58.297Z,100716.59
2023-04-08T13:42:26.525Z,100719.06
2023-04-08T13:44:54.480Z,100719.72
2023-04-08T13:47:22.681Z,100722.06
2023-04-08T13:49:50.565Z,100728.13
2023-04-08T13:52:18.645Z,100718.34
2023-04-08T13:54:47.128Z,100717.38
2023-04-08T13:57:15.094Z,100718.09
2023-04-08T13:59:44.654Z,100717.78
2023-04-08T14:02:13.078Z,100726.31
2023-04-08T14:04:41.557Z,100726.97
2023-04-08T14:07:09.553Z,100721.41
2023-04-08T14:09:37.416Z,100725.69
2023-04-08T14:12:05.894Z,100717.69
2023-04-08T14:14:34.147Z,100725.03
2023-04-08T14:17:02.778Z,100727.16
2023-04-08T14:19:30.763Z,100724.09
2023-04-08T14:21:58.779Z,100719.81
2023-04-08T14:24:27.307Z,100717.28
2023-04-08T14:26:55.259Z,100713.94
2023-04-08T14:29:24.509Z,100710.22
2023-04-08T14:31:53.835Z,100701.66
2023-04-08T14:34:21.716Z,100704.31
2023-04-08T14:36:50.057Z,100705.53
2023-04-08T14:39:18.234Z,100698.19
2023-04-08T14:41:47.995Z,100701.81
2023-04-08T14:44:16.080Z,100703.75
2023-04-08T14:46:44.105Z,100709.19
2023-04-08T14:49:12.070Z,100706.03
2023-04-08T14:51:39.996Z,100703.69
2023-04-08T14:54:08.107Z,100703.88
2023-04-08T14:56:36.433Z,100701.00
2023-04-08T14:59:04.321Z,100698.13
2023-04-08T15:01:34.215Z,100694.28
2023-04-08T15:04:02.221Z,100699.91
2023-04-08T15:06:31.364Z,100696.28
2023-04-08T15:08:59.191Z,100697.34
2023-04-08T15:11:27.074Z,100695.34
2023-04-08T15:13:55.064Z,100697.47
2023-04-08T15:16:22.927Z,100695.97
2023-04-08T15:18:51.235Z,100698.16
2023-04-08T15:21:19.635Z,100698.44
2023-04-08T15:23:47.509Z,100696.75
2023-04-08T15:26:15.390Z,100702.09
2023-04-08T15:28:43.531Z,100710.91
2023-04-08T15:31:11.855Z,100710.91
2023-04-08T15:33:41.710Z,100702.09
2023-04-08T15:36:09.737Z,100715.41
2023-04-08T15:38:38.020Z,100702.41
2023-04-08T15:41:05.976Z,100713.38
2023-04-08T15:43:35.826Z,100713.50
2023-04-08T15:46:03.734Z,100709.78
2023-04-08T15:48:32.982Z,100705.91
2023-04-08T15:51:01.296Z,100709.56
2023-04-08T15:53:29.309Z,100708.81
2023-04-08T15:55:57.370Z,100708.03
2023-04-08T15:58:25.141Z,100706.56
2023-04-08T16:00:55.137Z,100708.69
2023-04-08T16:03:23.197Z,100711.59
2023-04-08T16:05:52.430Z,100714.59
2023-04-08T16:08:20.410Z,100709.44
2023-04-08T16:10:48.255Z,100712.03
2023-04-08T16:13:16.200Z,100712.03
2023-04-08T16:15:44.733Z,100718.31
2023-04-08T16:18:13.765Z,100705.19
2023-04-08T16:20:42.168Z,100707.44
2023-04-08T16:23:09.944Z,100716.28
2023-04-08T16:25:37.854Z,100705.19
2023-04-08T16:28:07.334Z,100713.69
2023-04-08T16:30:37.761Z,100713.59
2023-04-08T16:33:06.308Z,100712.84
2023-04-08T16:35:34.363Z,100720.00
2023-04-08T16:38:02.161Z,100723.13
2023-04-08T16:40:33.950Z,100717.44
2023-04-08T16:43:02.154Z,100724.38
2023-04-08T16:45:30.363Z,100727.69
2023-04-08T16:47:58.453Z,100725.69
2023-04-08T16:50:26.528Z,100727.91
2023-04-08T16:52:55.128Z,100729.91
2023-04-08T16:55:22.992Z,100730.16
2023-04-08T16:57:51.481Z,100725.97
2023-04-08T17:00:21.134Z,100734.41
2023-04-08T17:02:49.523Z,100734.72
2023-04-08T17:05:18.126Z,100734.06
2023-04-08T17:07:46.136Z,100725.44
2023-04-08T17:10:15.671Z,100734.50
2023-04-08T17:12:43.551Z,100737.25
2023-04-08T17:15:11.741Z,100732.97
2023-04-08T17:17:40.043Z,100730.53
2023-04-08T17:20:07.998Z,100728.91
2023-04-08T17:22:36.721Z,100735.22
2023-04-08T17:25:04.557Z,100736.16
2023-04-08T17:27:32.423Z,100737.13
2023-04-08T17:30:00.675Z,100732.75
2023-04-08T17:32:28.563Z,100733.81
2023-04-08T17:34:56.731Z,100741.16
2023-04-08T17:37:24.631Z,100736.13
2023-04-08T17:39:52.431Z,100738.03
2023-04-08T17:42:23.171Z,100731.22
2023-04-08T17:44:50.941Z,100741.13
2023-04-08T17:47:18.877Z,100735.97
2023-04-08T17:49:46.702Z,100742.25
2023-04-08T17:52:14.802Z,100741.69
2023-04-08T17:54:43.639Z,100748.94
2023-04-08T17:57:11.445Z,100741.19
2023-04-08T17:59:39.548Z,100742.13
2023-04-08T18:02:07.407Z,100742.31
2023-04-08T18:04:35.507Z,100749.56
2023-04-08T18:07:05.092Z,100754.88
2023-04-08T18:09:32.958Z,100753.25
2023-04-08T18:12:01.022Z,100755.09
2023-04-08T18:14:28.834Z,100764.00
2023-04-08T18:16:57.033Z,100761.34
2023-04-08T18:19:27.425Z,100755.28
2023-04-08T18:21:55.506Z,100758.88
2023-04-08T18:24:23.301Z,100761.63
2023-04-08T18:27:01.417Z,100767.09
2023-04-08T18:29:32.083Z,100771.63
2023-04-08T18:32:00.064Z,100761.09
2023-04-08T18:34:27.979Z,100767.38
2023-04-08T18:36:56.048Z,100773.75
2023-04-08T18:39:24.510Z,100782.69
2023-04-08T18:41:52.749Z,100782.69
2023-04-08T18:44:20.641Z,100794.34
2023-04-08T18:46:48.610Z,100788.16
2023-04-08T18:49:16.678Z,100798.78
2023-04-08T18:51:59.039Z,100797.09
2023-04-08T18:54:30.282Z,100796.22
2023-04-08T18:56:59.904Z,100795.38
2023-04-08T18:59:29.357Z,100798.13
2023-04-08T19:01:57.465Z,100798.13
2023-04-08T19:04:25.515Z,100803.53
2023-04-08T19:06:53.569Z,100800.13
2023-04-08T19:09:21.842Z,100803.00
2023-04-08T19:11:49.795Z,100801.38
2023-04-08T19:14:18.047Z,100801.47
2023-04-08T19:16:46.284Z,100802.63
2023-04-08T19:19:15.241Z,100801.97
2023-04-08T19:21:43.765Z,100807.59
2023-04-08T19:24:11.665Z,100801.69
2023-04-08T19:26:39.597Z,100799.22
2023-04-08T19:29:07.474Z,100807.50
2023-04-08T19:31:35.676Z,100807.75
2023-04-08T19:34:04.269Z,100808.16
2023-04-08T19:36:32.241Z,100811.19
2023-04-08T19:39:01.917Z,100805.66
2023-04-08T19:41:30.185Z,100809.06
2023-04-08T19:43:58.047Z,100803.53
2023-04-08T19:46:26.189Z,100810.34
2023-04-08T19:48:56.392Z,100809.19
2023-04-08T19:51:24.621Z,100815.97
2023-04-08T19:53:54.323Z,100812.13
2023-04-08T19:56:22.792Z,100812.69
2023-04-08T19:58:51.148Z,100821.25
2023-04-08T20:01:19.322Z,100821.09
2023-04-08T20:03:50.608Z,100822.53
2023-04-08T20:06:18.679Z,100828.53
2023-04-08T20:08:47.094Z,100829.13
2023-04-08T20:11:15.081Z,100833.03
2023-04-08T20:13:43.336Z,100834.38
2023-04-08T20:16:11.449Z,100838.41
2023-04-08T20:18:39.304Z,100837.03
2023-04-08T20:21:08.836Z,100835.59
2023-04-08T20:23:39.729Z,100841.03
2023-04-08T20:26:07.694Z,100839.50
2023-04-08T20:28:35.623Z,100843.22
2023-04-08T20:31:03.613Z,100842.41
2023-04-08T20:33:32.266Z,100844.94
2023-04-08T20:36:00.648Z,100837.59
2023-04-08T20:38:28.589Z,100847.09
2023-04-08T20:40:56.453Z,100839.00
2023-04-08T20:43:24.289Z,100849.53
2023-04-08T20:45:52.937Z,100842.59
2023-04-08T20:48:21.072Z,100845.38
2023-04-08T20:50:48.861Z,100856.22
2023-04-08T20:53:17.583Z,100843.09
2023-04-08T20:55:45.446Z,100846.81
2023-04-08T20:58:13.724Z,100844.25
2023-04-08T21:00:41.965Z,100847.91
2023-04-08T21:03:10.003Z,100841.94
2023-04-08T21:05:37.885Z,100841.31
2023-04-08T21:08:06.379Z,100838.91
2023-04-08T21:10:34.608Z,100839.16
2023-04-08T21:13:02.505Z,100844.69
2023-04-08T21:15:30.450Z,100844.91
2023-04-08T21:17:58.305Z,100839.84
2023-04-08T21:20:26.173Z,100840.91
2023-04-08T21:22:54.642Z,100837.44
2023-04-08T21:25:22.481Z,100834.19
2023-04-08T21:27:50.324Z,100835.44
2023-04-08T21:30:18.452Z,100839.47
2023-04-08T21:32:46.555Z,100839.09
2023-04-08T21:35:14.753Z,100851.06
2023-04-08T21:37:42.717Z,100844.34
2023-04-08T21:40:10.438Z,100843.81
2023-04-08T21:42:38.230Z,100831.66
2023-04-08T21:45:06.700Z,100844.28
2023-04-08T21:47:34.623Z,100836.56
2023-04-08T21:50:04.583Z,100840.28
2023-04-08T21:52:32.956Z,100840.56
2023-04-08T21:55:01.076Z,100842.59
2023-04-08T21:57:28.945Z,100846.38
2023-04-08T21:59:56.797Z,100841.31
2023-04-08T22:02:25.100Z,100845.16
2023-04-08T22:04:53.195Z,100842.03
2023-04-08T22:07:21.097Z,100847.69
2023-04-08T22:09:48.814Z,100849.69
2023-04-08T22:12:17.571Z,100846.47
2023-04-08T22:14:45.888Z,100844.97
2023-04-08T22:17:13.883Z,100844.25
2023-04-08T22:19:41.822Z,100850.59
2023-04-08T22:22:09.619Z,100850.72
2023-04-08T22:24:37.773Z,100846.50
2023-04-08T22:27:05.616Z,100856.34
2023-04-08T22:29:34.258Z,100849.50
2023-04-08T22:32:02.216Z,100855.81
2023-04-08T22:34:30.492Z,100855.16
2023-04-08T22:36:58.826Z,100851.03
2023-04-08T22:39:27.693Z,100846.00
2023-04-08T22:41:56.020Z,100846.94
2023-04-08T22:44:23.802Z,100846.31
2023-04-08T22:46:51.810Z,100845.47
2023-04-08T22:49:19.898Z,100853.56
2023-04-08T22:51:47.770Z,100849.19
2023-04-08T22:54:15.425Z,100843.16
2023-04-08T22:56:43.614Z,100844.03
2023-04-08T22:59:11.365Z,100837.03
2023-04-08T23:01:39.634Z,100837.91
2023-04-08T23:04:07.443Z,100845.78
2023-04-08T23:06:35.326Z,100838.75
2023-04-08T23:09:03.141Z,100843.19
2023-04-08T23:11:31.109Z,100843.41
2023-04-08T23:13:59.507Z,100834.03
2023-04-08T23:16:27.463Z,100843.91
2023-04-08T23:18:55.717Z,100830.97
2023-04-08T23:21:23.687Z,100832.84
2023-04-08T23:23:51.328Z,100832.84
2023-04-08T23:26:19.097Z,100837.34
2023-04-08T23:28:47.183Z,100835.69
2023-04-08T23:31:14.870Z,100841.81
2023-04-08T23:33:42.594Z,100827.81
2023-04-08T23:36:10.439Z,100830.53
2023-04-08T23:38:38.666Z,100839.44
2023-04-08T23:41:08.122Z,100828.22
2023-04-08T23:43:35.905Z,100835.47
2023-04-08T23:46:03.737Z,100838.28
2023-04-08T23:48:31.394Z,100827.09
2023-04-08T23:50:59.606Z,100832.56
2023-04-08T23:53:27.309Z,100825.69
2023-04-08T23:55:55.140Z,100830.19
2023-04-08T23:58:22.858Z,100830.28
